IBZ weather

Ibiza Airport
Ibiza, Baleares, Spain

Public forecast

Using degrees Celsius for public forecast. Weather courtesy of forecast.io.

Current aviation weather report (METAR) for Ibiza Airport

Retrieved 2020/02/17 15:30 UTC (0 seconds ago):

LEIB 171530Z 22007KT 190V250 9000 OVC009 15/12 Q1024 NOSIG

Aviation forecast (TAF) for Ibiza Airport

Retrieved 2020/02/17 15:29 UTC (0 seconds ago):

TAF LEIB 171400Z 1715/1815 21010KT 9999 FEW020 TX15/1812Z TN10/1806Z TEMPO 1715/1721 BKN008 BECMG 1721/1723 08010KT PROB40 TEMPO 1802/1809 03015G25KT